sensor_id;sensor_type;location;lat;lon;timestamp;temperature;humidity
62998;DHT22;55949;52.590;7.330;2024-01-11T00:00:32;-5.30;99.90
62998;DHT22;55949;52.590;7.330;2024-01-11T00:01:32;-5.20;99.90
62998;DHT22;55949;52.590;7.330;2024-01-11T00:02:33;-5.20;99.90
62998;DHT22;55949;52.590;7.330;2024-01-11T00:03:34;-5.20;99.90
62998;DHT22;55949;52.590;7.330;2024-01-11T00:04:35;-5.30;99.90
62998;DHT22;55949;52.590;7.330;2024-01-11T00:05:36;-5.20;99.90
62998;DHT22;55949;52.590;7.330;2024-01-11T00:06:44;-5.20;99.90
62998;DHT22;55949;52.590;7.330;2024-01-11T00:07:45;-5.30;99.90
62998;DHT22;55949;52.590;7.330;2024-01-11T00:08:45;-5.20;99.90
62998;DHT22;55949;52.590;7.330;2024-01-11T00:09:46;-5.10;99.90
62998;DHT22;55949;52.590;7.330;2024-01-11T00:10:47;-5.00;99.90
62998;DHT22;55949;52.590;7.330;2024-01-11T00:11:47;-5.10;99.90
62998;DHT22;55949;52.590;7.330;2024-01-11T00:12:48;-5.20;99.90
62998;DHT22;55949;52.590;7.330;2024-01-11T00:13:49;-5.30;99.90
62998;DHT22;55949;52.590;7.330;2024-01-11T00:14:50;-5.20;99.90
62998;DHT22;55949;52.590;7.330;2024-01-11T00:15:51;-5.30;99.90
62998;DHT22;55949;52.590;7.330;2024-01-11T00:16:52;-5.30;99.90
62998;DHT22;55949;52.590;7.330;2024-01-11T00:17:52;-5.30;99.90
62998;DHT22;55949;52.590;7.330;2024-01-11T00:18:53;-5.30;99.90
62998;DHT22;55949;52.590;7.330;2024-01-11T00:19:54;-5.20;99.90
62998;DHT22;55949;52.590;7.330;2024-01-11T00:20:55;-5.30;99.90
62998;DHT22;55949;52.590;7.330;2024-01-11T00:21:55;-5.30;99.90
62998;DHT22;55949;52.590;7.330;2024-01-11T00:22:56;-5.30;99.90
62998;DHT22;55949;52.590;7.330;2024-01-11T00:23:57;-5.40;99.90
62998;DHT22;55949;52.590;7.330;2024-01-11T00:24:57;-5.40;99.90
62998;DHT22;55949;52.590;7.330;2024-01-11T00:25:58;-5.40;99.90
62998;DHT22;55949;52.590;7.330;2024-01-11T00:26:59;-5.30;99.90
62998;DHT22;55949;52.590;7.330;2024-01-11T00:28:02;-5.40;99.90
62998;DHT22;55949;52.590;7.330;2024-01-11T00:29:03;-5.40;99.90
62998;DHT22;55949;52.590;7.330;2024-01-11T00:30:04;-5.40;99.90
62998;DHT22;55949;52.590;7.330;2024-01-11T00:31:05;-5.30;99.90
62998;DHT22;55949;52.590;7.330;2024-01-11T00:32:06;-5.30;99.90
62998;DHT22;55949;52.590;7.330;2024-01-11T00:33:07;-5.30;99.90
62998;DHT22;55949;52.590;7.330;2024-01-11T00:34:07;-5.40;99.90
62998;DHT22;55949;52.590;7.330;2024-01-11T00:35:08;-5.40;99.90
62998;DHT22;55949;52.590;7.330;2024-01-11T00:36:09;-5.50;99.90
62998;DHT22;55949;52.590;7.330;2024-01-11T00:37:10;-5.50;99.90
62998;DHT22;55949;52.590;7.330;2024-01-11T00:38:11;-5.50;99.90
62998;DHT22;55949;52.590;7.330;2024-01-11T00:39:12;-5.50;99.90
62998;DHT22;55949;52.590;7.330;2024-01-11T00:40:13;-5.60;99.90
62998;DHT22;55949;52.590;7.330;2024-01-11T00:41:14;-5.60;99.90
62998;DHT22;55949;52.590;7.330;2024-01-11T00:42:15;-5.50;99.90
62998;DHT22;55949;52.590;7.330;2024-01-11T00:43:16;-5.50;99.90
62998;DHT22;55949;52.590;7.330;2024-01-11T00:44:17;-5.50;99.90
62998;DHT22;55949;52.590;7.330;2024-01-11T00:45:17;-5.30;99.90
62998;DHT22;55949;52.590;7.330;2024-01-11T00:46:18;-5.30;99.90
62998;DHT22;55949;52.590;7.330;2024-01-11T00:47:19;-5.10;99.90
62998;DHT22;55949;52.590;7.330;2024-01-11T00:48:20;-4.90;99.90
62998;DHT22;55949;52.590;7.330;2024-01-11T00:49:23;-5.10;99.90
62998;DHT22;55949;52.590;7.330;2024-01-11T00:50:24;-5.20;99.90
62998;DHT22;55949;52.590;7.330;2024-01-11T00:51:25;-5.40;99.90
62998;DHT22;55949;52.590;7.330;2024-01-11T00:52:25;-5.40;99.90
62998;DHT22;55949;52.590;7.330;2024-01-11T00:53:26;-5.50;99.90
62998;DHT22;55949;52.590;7.330;2024-01-11T00:54:34;-5.50;99.90
62998;DHT22;55949;52.590;7.330;2024-01-11T00:55:35;-5.60;99.90
62998;DHT22;55949;52.590;7.330;2024-01-11T00:56:35;-5.60;99.90
62998;DHT22;55949;52.590;7.330;2024-01-11T00:57:36;-5.70;99.90
62998;DHT22;55949;52.590;7.330;2024-01-11T00:58:38;-5.60;99.90
62998;DHT22;55949;52.590;7.330;2024-01-11T00:59:40;-5.60;99.90
62998;DHT22;55949;52.590;7.330;2024-01-11T01:00:41;-5.60;99.90
62998;DHT22;55949;52.590;7.330;2024-01-11T01:01:50;-5.70;99.90
62998;DHT22;55949;52.590;7.330;2024-01-11T01:02:51;-5.60;99.90
62998;DHT22;55949;52.590;7.330;2024-01-11T01:03:51;-5.70;99.90
62998;DHT22;55949;52.590;7.330;2024-01-11T01:04:52;-5.60;99.90
62998;DHT22;55949;52.590;7.330;2024-01-11T01:05:53;-5.60;99.90
62998;DHT22;55949;52.590;7.330;2024-01-11T01:06:54;-5.60;99.90
62998;DHT22;55949;52.590;7.330;2024-01-11T01:07:55;-5.60;99.90
62998;DHT22;55949;52.590;7.330;2024-01-11T01:08:55;-5.70;99.90
62998;DHT22;55949;52.590;7.330;2024-01-11T01:09:56;-5.70;99.90
62998;DHT22;55949;52.590;7.330;2024-01-11T01:10:57;-5.60;99.90
62998;DHT22;55949;52.590;7.330;2024-01-11T01:11:58;-5.50;99.90
62998;DHT22;55949;52.590;7.330;2024-01-11T01:12:58;-5.70;99.90
62998;DHT22;55949;52.590;7.330;2024-01-11T01:13:59;-5.60;99.90
62998;DHT22;55949;52.590;7.330;2024-01-11T01:15:00;-5.60;99.90
62998;DHT22;55949;52.590;7.330;2024-01-11T01:16:01;-5.60;99.90
62998;DHT22;55949;52.590;7.330;2024-01-11T01:17:03;-5.70;99.90
62998;DHT22;55949;52.590;7.330;2024-01-11T01:18:04;-5.60;99.90
62998;DHT22;55949;52.590;7.330;2024-01-11T01:19:05;-5.70;99.90
62998;DHT22;55949;52.590;7.330;2024-01-11T01:20:06;-5.70;99.90
62998;DHT22;55949;52.590;7.330;2024-01-11T01:21:07;-5.70;99.90
62998;DHT22;55949;52.590;7.330;2024-01-11T01:22:08;-5.70;99.90
62998;DHT22;55949;52.590;7.330;2024-01-11T01:23:09;-5.70;99.90
62998;DHT22;55949;52.590;7.330;2024-01-11T01:24:10;-5.70;99.90
62998;DHT22;55949;52.590;7.330;2024-01-11T01:25:11;-5.70;99.90
62998;DHT22;55949;52.590;7.330;2024-01-11T01:26:11;-5.60;99.90
62998;DHT22;55949;52.590;7.330;2024-01-11T01:27:12;-5.60;99.90
62998;DHT22;55949;52.590;7.330;2024-01-11T01:28:13;-5.60;99.90
62998;DHT22;55949;52.590;7.330;2024-01-11T01:29:14;-5.60;99.90
62998;DHT22;55949;52.590;7.330;2024-01-11T01:30:15;-5.60;99.90
62998;DHT22;55949;52.590;7.330;2024-01-11T01:31:15;-5.60;99.90
62998;DHT22;55949;52.590;7.330;2024-01-11T01:32:16;-5.60;99.90
62998;DHT22;55949;52.590;7.330;2024-01-11T01:33:17;-5.70;99.90
62998;DHT22;55949;52.590;7.330;2024-01-11T01:34:19;-5.60;99.90
62998;DHT22;55949;52.590;7.330;2024-01-11T01:35:20;-5.60;99.90
62998;DHT22;55949;52.590;7.330;2024-01-11T01:36:21;-5.70;99.90
62998;DHT22;55949;52.590;7.330;2024-01-11T01:37:22;-5.70;99.90
62998;DHT22;55949;52.590;7.330;2024-01-11T01:38:23;-5.70;99.90
62998;DHT22;55949;52.590;7.330;2024-01-11T01:39:24;-5.70;99.90
62998;DHT22;55949;52.590;7.330;2024-01-11T01:40:24;-5.70;99.90
62998;DHT22;55949;52.590;7.330;2024-01-11T01:41:25;-5.60;99.90
62998;DHT22;55949;52.590;7.330;2024-01-11T01:42:26;-5.70;99.90
62998;DHT22;55949;52.590;7.330;2024-01-11T01:43:27;-5.80;99.90
62998;DHT22;55949;52.590;7.330;2024-01-11T01:44:27;-5.80;99.90
62998;DHT22;55949;52.590;7.330;2024-01-11T01:45:28;-5.80;99.90
62998;DHT22;55949;52.590;7.330;2024-01-11T01:46:29;-5.90;99.90
62998;DHT22;55949;52.590;7.330;2024-01-11T01:47:30;-5.80;99.90
62998;DHT22;55949;52.590;7.330;2024-01-11T01:48:31;-5.70;99.90
62998;DHT22;55949;52.590;7.330;2024-01-11T01:49:32;-5.70;99.90
62998;DHT22;55949;52.590;7.330;2024-01-11T01:50:33;-5.70;99.90
62998;DHT22;55949;52.590;7.330;2024-01-11T01:51:34;-5.70;99.90
62998;DHT22;55949;52.590;7.330;2024-01-11T01:52:36;-5.50;99.90
62998;DHT22;55949;52.590;7.330;2024-01-11T01:53:37;-5.50;99.90
62998;DHT22;55949;52.590;7.330;2024-01-11T01:54:38;-5.50;99.90
62998;DHT22;55949;52.590;7.330;2024-01-11T01:55:39;-5.50;99.90
62998;DHT22;55949;52.590;7.330;2024-01-11T01:56:43;-5.40;99.90
62998;DHT22;55949;52.590;7.330;2024-01-11T01:57:45;-5.40;99.90
62998;DHT22;55949;52.590;7.330;2024-01-11T01:58:48;-5.50;99.90
62998;DHT22;55949;52.590;7.330;2024-01-11T01:59:51;-5.60;99.90
62998;DHT22;55949;52.590;7.330;2024-01-11T02:00:57;-5.70;99.90
62998;DHT22;55949;52.590;7.330;2024-01-11T02:01:58;-5.70;99.90
62998;DHT22;55949;52.590;7.330;2024-01-11T02:03:00;-5.80;99.90
62998;DHT22;55949;52.590;7.330;2024-01-11T02:04:03;-5.70;99.90
62998;DHT22;55949;52.590;7.330;2024-01-11T02:05:05;-5.70;99.90
62998;DHT22;55949;52.590;7.330;2024-01-11T02:06:06;-5.70;99.90
62998;DHT22;55949;52.590;7.330;2024-01-11T02:07:08;-5.80;99.90
62998;DHT22;55949;52.590;7.330;2024-01-11T02:08:15;-5.90;99.90
62998;DHT22;55949;52.590;7.330;2024-01-11T02:09:17;-5.90;99.90
62998;DHT22;55949;52.590;7.330;2024-01-11T02:10:19;-5.70;99.90
62998;DHT22;55949;52.590;7.330;2024-01-11T02:11:20;-5.70;99.90
62998;DHT22;55949;52.590;7.330;2024-01-11T02:12:22;-5.70;99.90
62998;DHT22;55949;52.590;7.330;2024-01-11T02:13:24;-5.70;99.90
62998;DHT22;55949;52.590;7.330;2024-01-11T02:14:25;-5.70;99.90
62998;DHT22;55949;52.590;7.330;2024-01-11T02:15:26;-5.60;99.90
62998;DHT22;55949;52.590;7.330;2024-01-11T02:16:27;-5.70;99.90
62998;DHT22;55949;52.590;7.330;2024-01-11T02:17:28;-5.60;99.90
62998;DHT22;55949;52.590;7.330;2024-01-11T02:18:29;-5.40;99.90
62998;DHT22;55949;52.590;7.330;2024-01-11T02:19:30;-5.20;99.90
62998;DHT22;55949;52.590;7.330;2024-01-11T02:20:31;-5.00;99.90
62998;DHT22;55949;52.590;7.330;2024-01-11T02:21:33;-5.00;99.90
62998;DHT22;55949;52.590;7.330;2024-01-11T02:22:36;-5.30;99.90
62998;DHT22;55949;52.590;7.330;2024-01-11T02:23:43;-5.40;99.90
62998;DHT22;55949;52.590;7.330;2024-01-11T02:24:47;-5.50;99.90
62998;DHT22;55949;52.590;7.330;2024-01-11T02:25:48;-5.50;99.90
62998;DHT22;55949;52.590;7.330;2024-01-11T02:27:02;-5.60;99.90
62998;DHT22;55949;52.590;7.330;2024-01-11T02:28:03;-5.30;99.90
62998;DHT22;55949;52.590;7.330;2024-01-11T02:29:04;-5.20;99.90
62998;DHT22;55949;52.590;7.330;2024-01-11T02:30:05;-5.00;99.90
62998;DHT22;55949;52.590;7.330;2024-01-11T02:31:06;-5.20;99.90
62998;DHT22;55949;52.590;7.330;2024-01-11T02:32:07;-5.40;99.90
62998;DHT22;55949;52.590;7.330;2024-01-11T02:33:09;-5.60;99.90
62998;DHT22;55949;52.590;7.330;2024-01-11T02:34:10;-5.70;99.90
62998;DHT22;55949;52.590;7.330;2024-01-11T02:35:11;-5.70;99.90
62998;DHT22;55949;52.590;7.330;2024-01-11T02:36:13;-5.80;99.90
62998;DHT22;55949;52.590;7.330;2024-01-11T02:37:14;-5.60;99.90
62998;DHT22;55949;52.590;7.330;2024-01-11T02:38:15;-5.50;99.90
62998;DHT22;55949;52.590;7.330;2024-01-11T02:39:17;-5.30;99.90
62998;DHT22;55949;52.590;7.330;2024-01-11T02:40:21;-5.00;99.90
62998;DHT22;55949;52.590;7.330;2024-01-11T02:41:23;-4.90;99.90
62998;DHT22;55949;52.590;7.330;2024-01-11T02:42:24;-4.60;99.90
62998;DHT22;55949;52.590;7.330;2024-01-11T02:43:25;-4.50;99.90
62998;DHT22;55949;52.590;7.330;2024-01-11T02:44:26;-4.50;99.90
62998;DHT22;55949;52.590;7.330;2024-01-11T02:45:27;-4.40;99.90
62998;DHT22;55949;52.590;7.330;2024-01-11T02:46:29;-4.30;99.90
62998;DHT22;55949;52.590;7.330;2024-01-11T02:47:30;-4.40;99.90
62998;DHT22;55949;52.590;7.330;2024-01-11T02:48:31;-4.30;99.90
62998;DHT22;55949;52.590;7.330;2024-01-11T02:49:32;-4.30;99.90
62998;DHT22;55949;52.590;7.330;2024-01-11T02:50:33;-4.70;99.90
62998;DHT22;55949;52.590;7.330;2024-01-11T02:51:33;-4.80;99.90
62998;DHT22;55949;52.590;7.330;2024-01-11T02:52:34;-4.70;99.90
62998;DHT22;55949;52.590;7.330;2024-01-11T02:53:35;-4.90;99.90
62998;DHT22;55949;52.590;7.330;2024-01-11T02:54:36;-4.80;99.90
62998;DHT22;55949;52.590;7.330;2024-01-11T02:55:37;-5.00;99.90
62998;DHT22;55949;52.590;7.330;2024-01-11T02:56:37;-5.20;99.90
62998;DHT22;55949;52.590;7.330;2024-01-11T02:57:38;-5.30;99.90
62998;DHT22;55949;52.590;7.330;2024-01-11T02:58:39;-5.50;99.90
62998;DHT22;55949;52.590;7.330;2024-01-11T02:59:42;-5.60;99.90
62998;DHT22;55949;52.590;7.330;2024-01-11T03:00:43;-5.60;99.90
62998;DHT22;55949;52.590;7.330;2024-01-11T03:01:44;-5.70;99.90
62998;DHT22;55949;52.590;7.330;2024-01-11T03:02:44;-5.60;99.90
62998;DHT22;55949;52.590;7.330;2024-01-11T03:03:47;-5.50;99.90
62998;DHT22;55949;52.590;7.330;2024-01-11T03:04:48;-5.60;99.90
62998;DHT22;55949;52.590;7.330;2024-01-11T03:05:49;-5.70;99.90
62998;DHT22;55949;52.590;7.330;2024-01-11T03:06:50;-5.60;99.90
62998;DHT22;55949;52.590;7.330;2024-01-11T03:07:50;-5.60;99.90
62998;DHT22;55949;52.590;7.330;2024-01-11T03:08:51;-5.70;99.90
62998;DHT22;55949;52.590;7.330;2024-01-11T03:09:52;-5.60;99.90
62998;DHT22;55949;52.590;7.330;2024-01-11T03:10:52;-5.30;99.90
62998;DHT22;55949;52.590;7.330;2024-01-11T03:11:53;-5.20;99.90
62998;DHT22;55949;52.590;7.330;2024-01-11T03:12:54;-5.40;99.90
62998;DHT22;55949;52.590;7.330;2024-01-11T03:13:55;-5.10;99.90
62998;DHT22;55949;52.590;7.330;2024-01-11T03:14:56;-4.90;99.90
62998;DHT22;55949;52.590;7.330;2024-01-11T03:15:57;-4.70;99.90
62998;DHT22;55949;52.590;7.330;2024-01-11T03:16:57;-4.70;99.90
62998;DHT22;55949;52.590;7.330;2024-01-11T03:17:58;-4.90;99.90
62998;DHT22;55949;52.590;7.330;2024-01-11T03:18:59;-5.10;99.90
62998;DHT22;55949;52.590;7.330;2024-01-11T03:20:01;-5.20;99.90
62998;DHT22;55949;52.590;7.330;2024-01-11T03:21:04;-5.50;99.90
62998;DHT22;55949;52.590;7.330;2024-01-11T03:22:05;-5.60;99.90
62998;DHT22;55949;52.590;7.330;2024-01-11T03:23:07;-5.50;99.90
62998;DHT22;55949;52.590;7.330;2024-01-11T03:24:08;-5.50;99.90
62998;DHT22;55949;52.590;7.330;2024-01-11T03:25:10;-5.50;99.90
62998;DHT22;55949;52.590;7.330;2024-01-11T03:26:15;-5.60;99.90
62998;DHT22;55949;52.590;7.330;2024-01-11T03:27:16;-5.50;99.90
62998;DHT22;55949;52.590;7.330;2024-01-11T03:28:18;-5.10;99.90
62998;DHT22;55949;52.590;7.330;2024-01-11T03:29:18;-5.10;99.90
62998;DHT22;55949;52.590;7.330;2024-01-11T03:30:19;-5.30;99.90
62998;DHT22;55949;52.590;7.330;2024-01-11T03:31:20;-5.20;99.90
62998;DHT22;55949;52.590;7.330;2024-01-11T03:32:24;-5.10;99.90
62998;DHT22;55949;52.590;7.330;2024-01-11T03:33:24;-5.20;99.90
62998;DHT22;55949;52.590;7.330;2024-01-11T03:34:25;-5.40;99.90
62998;DHT22;55949;52.590;7.330;2024-01-11T03:35:26;-5.50;99.90
62998;DHT22;55949;52.590;7.330;2024-01-11T03:36:26;-5.50;99.90
62998;DHT22;55949;52.590;7.330;2024-01-11T03:37:27;-5.50;99.90
62998;DHT22;55949;52.590;7.330;2024-01-11T03:38:28;-5.50;99.90
62998;DHT22;55949;52.590;7.330;2024-01-11T03:39:29;-5.70;99.90
62998;DHT22;55949;52.590;7.330;2024-01-11T03:40:29;-5.80;99.90
62998;DHT22;55949;52.590;7.330;2024-01-11T03:41:30;-5.80;99.90
62998;DHT22;55949;52.590;7.330;2024-01-11T03:42:31;-5.80;99.90
62998;DHT22;55949;52.590;7.330;2024-01-11T03:43:31;-5.90;99.90
62998;DHT22;55949;52.590;7.330;2024-01-11T03:44:32;-5.90;99.90
62998;DHT22;55949;52.590;7.330;2024-01-11T03:45:33;-6.00;99.90
62998;DHT22;55949;52.590;7.330;2024-01-11T03:46:34;-6.00;99.90
62998;DHT22;55949;52.590;7.330;2024-01-11T03:47:35;-5.90;99.90
62998;DHT22;55949;52.590;7.330;2024-01-11T03:48:35;-5.90;99.90
62998;DHT22;55949;52.590;7.330;2024-01-11T03:49:36;-5.70;99.90
62998;DHT22;55949;52.590;7.330;2024-01-11T03:50:37;-5.70;99.90
62998;DHT22;55949;52.590;7.330;2024-01-11T03:51:37;-5.70;99.90
62998;DHT22;55949;52.590;7.330;2024-01-11T03:52:39;-5.70;99.90
62998;DHT22;55949;52.590;7.330;2024-01-11T03:53:40;-5.70;99.90
62998;DHT22;55949;52.590;7.330;2024-01-11T03:54:41;-5.50;99.90
62998;DHT22;55949;52.590;7.330;2024-01-11T03:55:41;-5.30;99.90
62998;DHT22;55949;52.590;7.330;2024-01-11T03:56:42;-5.40;99.90
62998;DHT22;55949;52.590;7.330;2024-01-11T03:57:43;-5.50;99.90
62998;DHT22;55949;52.590;7.330;2024-01-11T03:58:44;-5.70;99.90
62998;DHT22;55949;52.590;7.330;2024-01-11T03:59:45;-5.70;99.90
62998;DHT22;55949;52.590;7.330;2024-01-11T04:00:46;-5.60;99.90
62998;DHT22;55949;52.590;7.330;2024-01-11T04:01:49;-5.50;99.90
62998;DHT22;55949;52.590;7.330;2024-01-11T04:02:50;-5.30;99.90
62998;DHT22;55949;52.590;7.330;2024-01-11T04:03:51;-5.10;99.90
62998;DHT22;55949;52.590;7.330;2024-01-11T04:04:54;-4.70;99.90
62998;DHT22;55949;52.590;7.330;2024-01-11T04:05:55;-4.50;99.90
62998;DHT22;55949;52.590;7.330;2024-01-11T04:06:56;-4.30;99.90
62998;DHT22;55949;52.590;7.330;2024-01-11T04:07:56;-4.10;99.90
62998;DHT22;55949;52.590;7.330;2024-01-11T04:08:57;-3.90;99.90
62998;DHT22;55949;52.590;7.330;2024-01-11T04:09:58;-3.80;99.90
62998;DHT22;55949;52.590;7.330;2024-01-11T04:11:02;-3.70;99.90
62998;DHT22;55949;52.590;7.330;2024-01-11T04:12:05;-3.60;99.90
62998;DHT22;55949;52.590;7.330;2024-01-11T04:13:09;-3.80;99.90
62998;DHT22;55949;52.590;7.330;2024-01-11T04:14:10;-4.10;99.90
62998;DHT22;55949;52.590;7.330;2024-01-11T04:15:13;-4.10;99.90
62998;DHT22;55949;52.590;7.330;2024-01-11T04:16:14;-4.10;99.90
62998;DHT22;55949;52.590;7.330;2024-01-11T04:17:15;-4.30;99.90
62998;DHT22;55949;52.590;7.330;2024-01-11T04:18:16;-4.40;99.90
62998;DHT22;55949;52.590;7.330;2024-01-11T04:19:17;-4.30;99.90
62998;DHT22;55949;52.590;7.330;2024-01-11T04:20:17;-4.10;99.90
62998;DHT22;55949;52.590;7.330;2024-01-11T04:21:26;-3.90;99.90
62998;DHT22;55949;52.590;7.330;2024-01-11T04:22:30;-3.80;99.90
62998;DHT22;55949;52.590;7.330;2024-01-11T04:23:34;-3.70;99.90
62998;DHT22;55949;52.590;7.330;2024-01-11T04:24:36;-3.60;99.90
62998;DHT22;55949;52.590;7.330;2024-01-11T04:25:39;-3.50;99.90
62998;DHT22;55949;52.590;7.330;2024-01-11T04:26:40;-3.40;99.90
62998;DHT22;55949;52.590;7.330;2024-01-11T04:27:41;-3.50;99.90
62998;DHT22;55949;52.590;7.330;2024-01-11T04:28:41;-3.40;99.90
62998;DHT22;55949;52.590;7.330;2024-01-11T04:29:42;-3.30;99.90
62998;DHT22;55949;52.590;7.330;2024-01-11T04:30:43;-3.30;99.90
62998;DHT22;55949;52.590;7.330;2024-01-11T04:31:44;-3.60;99.90
62998;DHT22;55949;52.590;7.330;2024-01-11T04:32:44;-3.60;99.90
62998;DHT22;55949;52.590;7.330;2024-01-11T04:33:46;-3.50;99.90
62998;DHT22;55949;52.590;7.330;2024-01-11T04:34:46;-3.30;99.90
62998;DHT22;55949;52.590;7.330;2024-01-11T04:35:47;-3.60;99.90
62998;DHT22;55949;52.590;7.330;2024-01-11T04:36:48;-3.90;99.90
62998;DHT22;55949;52.590;7.330;2024-01-11T04:37:48;-4.40;99.90
62998;DHT22;55949;52.590;7.330;2024-01-11T04:38:49;-4.30;99.90
62998;DHT22;55949;52.590;7.330;2024-01-11T04:39:50;-4.30;99.90
62998;DHT22;55949;52.590;7.330;2024-01-11T04:40:50;-4.70;99.90
62998;DHT22;55949;52.590;7.330;2024-01-11T04:41:51;-4.80;99.90
62998;DHT22;55949;52.590;7.330;2024-01-11T04:42:52;-4.70;99.90
62998;DHT22;55949;52.590;7.330;2024-01-11T04:43:53;-4.50;99.90
62998;DHT22;55949;52.590;7.330;2024-01-11T04:44:53;-4.10;99.90
62998;DHT22;55949;52.590;7.330;2024-01-11T04:45:54;-3.90;99.90
62998;DHT22;55949;52.590;7.330;2024-01-11T04:46:55;-3.80;99.90
62998;DHT22;55949;52.590;7.330;2024-01-11T04:47:56;-3.70;99.90
62998;DHT22;55949;52.590;7.330;2024-01-11T04:48:56;-3.70;99.90
62998;DHT22;55949;52.590;7.330;2024-01-11T04:49:57;-3.60;99.90
62998;DHT22;55949;52.590;7.330;2024-01-11T04:50:58;-3.60;99.90
62998;DHT22;55949;52.590;7.330;2024-01-11T04:51:59;-3.60;99.90
62998;DHT22;55949;52.590;7.330;2024-01-11T04:53:00;-3.60;99.90
62998;DHT22;55949;52.590;7.330;2024-01-11T04:54:00;-3.70;99.90
62998;DHT22;55949;52.590;7.330;2024-01-11T04:55:01;-4.40;99.90
62998;DHT22;55949;52.590;7.330;2024-01-11T04:56:02;-4.70;99.90
62998;DHT22;55949;52.590;7.330;2024-01-11T04:57:03;-4.90;99.90
62998;DHT22;55949;52.590;7.330;2024-01-11T04:58:04;-5.30;99.90
62998;DHT22;55949;52.590;7.330;2024-01-11T04:59:05;-5.40;99.90
62998;DHT22;55949;52.590;7.330;2024-01-11T05:00:06;-5.30;99.90
62998;DHT22;55949;52.590;7.330;2024-01-11T05:01:12;-5.40;99.90
62998;DHT22;55949;52.590;7.330;2024-01-11T05:02:13;-5.10;99.90
62998;DHT22;55949;52.590;7.330;2024-01-11T05:03:14;-4.80;99.90
62998;DHT22;55949;52.590;7.330;2024-01-11T05:04:14;-4.60;99.90
62998;DHT22;55949;52.590;7.330;2024-01-11T05:05:15;-4.30;99.90
62998;DHT22;55949;52.590;7.330;2024-01-11T05:06:20;-4.10;99.90
62998;DHT22;55949;52.590;7.330;2024-01-11T05:07:22;-4.00;99.90
62998;DHT22;55949;52.590;7.330;2024-01-11T05:08:23;-4.20;99.90
62998;DHT22;55949;52.590;7.330;2024-01-11T05:09:24;-4.10;99.90
62998;DHT22;55949;52.590;7.330;2024-01-11T05:10:27;-4.50;99.90
62998;DHT22;55949;52.590;7.330;2024-01-11T05:11:28;-5.20;99.90
62998;DHT22;55949;52.590;7.330;2024-01-11T05:12:29;-5.50;99.90
62998;DHT22;55949;52.590;7.330;2024-01-11T05:13:30;-5.50;99.90
62998;DHT22;55949;52.590;7.330;2024-01-11T05:14:30;-5.30;99.90
62998;DHT22;55949;52.590;7.330;2024-01-11T05:15:31;-5.40;99.90
62998;DHT22;55949;52.590;7.330;2024-01-11T05:16:32;-5.70;99.90
62998;DHT22;55949;52.590;7.330;2024-01-11T05:17:33;-5.60;99.90
62998;DHT22;55949;52.590;7.330;2024-01-11T05:18:33;-5.60;99.90
62998;DHT22;55949;52.590;7.330;2024-01-11T05:19:34;-5.40;99.90
62998;DHT22;55949;52.590;7.330;2024-01-11T05:20:35;-5.40;99.90
62998;DHT22;55949;52.590;7.330;2024-01-11T05:21:36;-5.40;99.90
62998;DHT22;55949;52.590;7.330;2024-01-11T05:22:37;-5.70;99.90
62998;DHT22;55949;52.590;7.330;2024-01-11T05:23:37;-5.70;99.90
62998;DHT22;55949;52.590;7.330;2024-01-11T05:24:38;-5.80;99.90
62998;DHT22;55949;52.590;7.330;2024-01-11T05:25:39;-6.10;99.90
62998;DHT22;55949;52.590;7.330;2024-01-11T05:26:39;-6.30;99.90
62998;DHT22;55949;52.590;7.330;2024-01-11T05:27:40;-6.30;99.90
62998;DHT22;55949;52.590;7.330;2024-01-11T05:28:41;-6.50;99.90
62998;DHT22;55949;52.590;7.330;2024-01-11T05:29:42;-6.50;99.90
62998;DHT22;55949;52.590;7.330;2024-01-11T05:30:43;-6.50;99.90
62998;DHT22;55949;52.590;7.330;2024-01-11T05:31:44;-6.40;99.90
62998;DHT22;55949;52.590;7.330;2024-01-11T05:32:45;-6.60;99.90
62998;DHT22;55949;52.590;7.330;2024-01-11T05:33:45;-6.60;99.90
62998;DHT22;55949;52.590;7.330;2024-01-11T05:34:46;-6.60;99.90
62998;DHT22;55949;52.590;7.330;2024-01-11T05:35:47;-6.70;99.90
62998;DHT22;55949;52.590;7.330;2024-01-11T05:36:48;-6.60;99.90
62998;DHT22;55949;52.590;7.330;2024-01-11T05:37:49;-6.50;99.90
62998;DHT22;55949;52.590;7.330;2024-01-11T05:38:50;-6.50;99.90
62998;DHT22;55949;52.590;7.330;2024-01-11T05:39:51;-6.60;99.90
62998;DHT22;55949;52.590;7.330;2024-01-11T05:40:52;-6.60;99.90
62998;DHT22;55949;52.590;7.330;2024-01-11T05:41:53;-6.60;99.90
62998;DHT22;55949;52.590;7.330;2024-01-11T05:42:53;-6.60;99.90
62998;DHT22;55949;52.590;7.330;2024-01-11T05:43:54;-6.60;99.90
62998;DHT22;55949;52.590;7.330;2024-01-11T05:44:55;-6.60;99.90
62998;DHT22;55949;52.590;7.330;2024-01-11T05:45:55;-6.60;99.90
62998;DHT22;55949;52.590;7.330;2024-01-11T05:46:56;-6.40;99.90
62998;DHT22;55949;52.590;7.330;2024-01-11T05:47:57;-6.20;99.90
62998;DHT22;55949;52.590;7.330;2024-01-11T05:48:57;-6.10;99.90
62998;DHT22;55949;52.590;7.330;2024-01-11T05:49:58;-6.00;99.90
62998;DHT22;55949;52.590;7.330;2024-01-11T05:50:58;-5.70;99.90
62998;DHT22;55949;52.590;7.330;2024-01-11T05:52:00;-5.80;99.90
62998;DHT22;55949;52.590;7.330;2024-01-11T05:53:01;-6.10;99.90
62998;DHT22;55949;52.590;7.330;2024-01-11T05:54:01;-6.20;99.90
62998;DHT22;55949;52.590;7.330;2024-01-11T05:55:02;-6.30;99.90
62998;DHT22;55949;52.590;7.330;2024-01-11T05:56:10;-6.30;99.90
62998;DHT22;55949;52.590;7.330;2024-01-11T05:57:12;-6.40;99.90
62998;DHT22;55949;52.590;7.330;2024-01-11T05:58:13;-6.30;99.90
62998;DHT22;55949;52.590;7.330;2024-01-11T05:59:14;-6.30;99.90
62998;DHT22;55949;52.590;7.330;2024-01-11T06:00:15;-6.20;99.90
62998;DHT22;55949;52.590;7.330;2024-01-11T06:01:17;-6.20;99.90
62998;DHT22;55949;52.590;7.330;2024-01-11T06:02:17;-6.10;99.90
62998;DHT22;55949;52.590;7.330;2024-01-11T06:03:18;-6.00;99.90
62998;DHT22;55949;52.590;7.330;2024-01-11T06:04:19;-5.80;99.90
62998;DHT22;55949;52.590;7.330;2024-01-11T06:05:19;-5.50;99.90
62998;DHT22;55949;52.590;7.330;2024-01-11T06:06:20;-5.20;99.90
62998;DHT22;55949;52.590;7.330;2024-01-11T06:07:24;-5.00;99.90
62998;DHT22;55949;52.590;7.330;2024-01-11T06:08:33;-4.80;99.90
62998;DHT22;55949;52.590;7.330;2024-01-11T06:09:34;-4.60;99.90
62998;DHT22;55949;52.590;7.330;2024-01-11T06:10:34;-4.50;99.90
62998;DHT22;55949;52.590;7.330;2024-01-11T06:11:35;-4.20;99.90
62998;DHT22;55949;52.590;7.330;2024-01-11T06:12:36;-4.10;99.90
62998;DHT22;55949;52.590;7.330;2024-01-11T06:13:37;-4.40;99.90
62998;DHT22;55949;52.590;7.330;2024-01-11T06:14:39;-4.70;99.90
62998;DHT22;55949;52.590;7.330;2024-01-11T06:15:40;-4.70;99.90
62998;DHT22;55949;52.590;7.330;2024-01-11T06:16:41;-4.50;99.90
62998;DHT22;55949;52.590;7.330;2024-01-11T06:17:43;-4.80;99.90
62998;DHT22;55949;52.590;7.330;2024-01-11T06:18:44;-4.70;99.90
62998;DHT22;55949;52.590;7.330;2024-01-11T06:19:45;-4.60;99.90
62998;DHT22;55949;52.590;7.330;2024-01-11T06:20:46;-4.40;99.90
62998;DHT22;55949;52.590;7.330;2024-01-11T06:21:46;-4.30;99.90
62998;DHT22;55949;52.590;7.330;2024-01-11T06:22:47;-4.50;99.90
62998;DHT22;55949;52.590;7.330;2024-01-11T06:23:48;-4.50;99.90
62998;DHT22;55949;52.590;7.330;2024-01-11T06:24:49;-4.80;99.90
62998;DHT22;55949;52.590;7.330;2024-01-11T06:25:50;-4.90;99.90
62998;DHT22;55949;52.590;7.330;2024-01-11T06:26:51;-4.90;99.90